Time;durP1;ratioP1;P1;durP2;ratioP2;P2;SDS_P1;SDS_P2;PMS_P1;PMS_P2;Temp;Humidity;BMP_temperature;BMP_pressure;BME280_temperature;BME280_humidity;BME280_pressure;Samples;Min_cycle;Max_cycle;Signal;HPM_P1;HPM_P2
2022/09/05 00:00:18;;;;;;;6.07;2.40;;;19.70;95.90;;;;;;7385995;19;20384;-56
2022/09/05 00:02:57;;;;;;;2.80;1.97;;;19.60;97.10;;;;;;7390087;19;20740;-55
2022/09/05 00:05:51;;;;;;;2.40;2.07;;;19.60;97.30;;;;;;7389603;19;20410;-55
2022/09/05 00:08:30;;;;;;;3.03;1.93;;;19.70;97.00;;;;;;7387828;19;20380;-55
2022/09/05 00:11:10;;;;;;;3.80;2.30;;;19.60;97.20;;;;;;7387392;19;20376;-48
2022/09/05 00:13:43;;;;;;;2.90;2.23;;;19.70;96.70;;;;;;7389288;19;20372;-48
2022/09/05 00:16:47;;;;;;;3.47;2.43;;;19.70;97.10;;;;;;7389282;19;20383;-48
2022/09/05 00:19:26;;;;;;;2.47;1.97;;;19.60;97.40;;;;;;7387855;19;20388;-47
2022/09/05 00:22:09;;;;;;;2.80;2.00;;;19.40;98.20;;;;;;7389163;19;20372;-48
2022/09/05 00:24:52;;;;;;;2.20;2.00;;;19.30;99.00;;;;;;7389617;19;20941;-49
2022/09/05 00:27:28;;;;;;;2.60;2.30;;;19.20;99.30;;;;;;7388074;19;20937;-48
2022/09/05 00:30:09;;;;;;;2.60;2.07;;;19.10;99.90;;;;;;7385563;19;20757;-48
2022/09/05 00:33:05;;;;;;;2.60;2.20;;;19.20;99.90;;;;;;7388078;19;20917;-48
2022/09/05 00:36:02;;;;;;;2.77;2.53;;;19.20;99.90;;;;;;7387133;19;20381;-48
2022/09/05 00:38:33;;;;;;;2.30;2.00;;;19.30;99.90;;;;;;7386802;19;20403;-47
2022/09/05 00:41:09;;;;;;;3.67;2.37;;;19.40;99.90;;;;;;7388226;19;20415;-56
2022/09/05 00:43:41;;;;;;;3.70;2.10;;;19.40;99.70;;;;;;7387425;19;20376;-56
2022/09/05 00:46:17;;;;;;;3.40;2.67;;;19.10;99.90;;;;;;7385160;19;20433;-55
2022/09/05 00:48:53;;;;;;;3.10;2.10;;;19.00;99.90;;;;;;7386004;19;20371;-55
2022/09/05 00:51:33;;;;;;;2.77;2.10;;;18.90;99.90;;;;;;7383253;19;20399;-56
2022/09/05 00:54:16;;;;;;;2.87;2.27;;;19.00;99.90;;;;;;7388683;19;20372;-55
2022/09/05 00:57:04;;;;;;;6.73;2.90;;;19.20;99.90;;;;;;7388566;19;20387;-55
2022/09/05 01:00:00;;;;;;;2.10;1.90;;;19.10;99.90;;;;;;7386286;19;20388;-56
2022/09/05 01:03:09;;;;;;;3.87;2.40;;;19.10;99.90;;;;;;7386878;19;20376;-55
2022/09/05 01:05:48;;;;;;;3.57;2.17;;;19.00;99.90;;;;;;7383316;19;20503;-55
2022/09/05 01:08:37;;;;;;;3.40;2.30;;;18.80;99.90;;;;;;7385340;19;20383;-55
2022/09/05 01:11:14;;;;;;;6.77;2.17;;;18.90;99.90;;;;;;7385891;19;20379;-55
2022/09/05 01:13:51;;;;;;;1.90;1.80;;;18.80;99.90;;;;;;7387221;19;20946;-56
2022/09/05 01:16:28;;;;;;;2.43;1.73;;;18.80;99.90;;;;;;7387064;19;20420;-55
2022/09/05 01:19:12;;;;;;;3.00;2.10;;;18.70;99.90;;;;;;7384988;19;20376;-55
2022/09/05 01:21:59;;;;;;;2.27;2.00;;;18.70;99.90;;;;;;7386843;19;20927;-55
2022/09/05 01:24:53;;;;;;;5.13;2.40;;;18.80;99.90;;;;;;7387691;19;20405;-55
2022/09/05 01:27:48;;;;;;;2.50;1.83;;;18.80;99.90;;;;;;7384786;19;20416;-55
2022/09/05 01:30:23;;;;;;;3.53;2.10;;;18.80;99.90;;;;;;7385618;19;20384;-55
2022/09/05 01:33:02;;;;;;;4.17;2.30;;;18.80;99.90;;;;;;7383873;19;20414;-55
2022/09/05 01:35:52;;;;;;;3.57;2.17;;;18.80;99.90;;;;;;7386281;19;20379;-54
2022/09/05 01:38:33;;;;;;;3.00;2.20;;;18.70;99.90;;;;;;7384723;19;20391;-56
2022/09/05 01:41:15;;;;;;;3.70;2.10;;;18.70;99.90;;;;;;7386106;19;21056;-55
2022/09/05 01:44:14;;;;;;;3.40;2.33;;;18.80;99.90;;;;;;7384449;19;20372;-55
2022/09/05 01:46:54;;;;;;;2.50;2.07;;;18.90;99.90;;;;;;7385579;19;20391;-56
2022/09/05 01:49:35;;;;;;;2.53;2.17;;;18.70;99.90;;;;;;7384577;19;20356;-56
2022/09/05 01:52:26;;;;;;;2.17;1.93;;;18.70;99.90;;;;;;7384354;19;20372;-56
2022/09/05 01:55:13;;;;;;;2.57;2.07;;;18.90;99.90;;;;;;7381104;19;20372;-55
2022/09/05 01:57:51;;;;;;;4.20;2.23;;;18.90;99.90;;;;;;7385899;19;21000;-55
2022/09/05 02:00:26;;;;;;;3.20;2.40;;;19.10;99.90;;;;;;7383153;19;20389;-55
2022/09/05 02:03:08;;;;;;;2.47;2.27;;;19.20;99.90;;;;;;7382608;19;20375;-55
2022/09/05 02:06:13;;;;;;;3.47;1.93;;;19.20;99.90;;;;;;7383251;19;20463;-54
2022/09/05 02:08:57;;;;;;;2.30;2.10;;;19.00;99.90;;;;;;7383376;19;20384;-55
2022/09/05 02:11:42;;;;;;;3.37;2.00;;;19.10;99.90;;;;;;7383225;19;20387;-56
2022/09/05 02:14:23;;;;;;;3.13;2.00;;;19.10;99.90;;;;;;7383306;19;20397;-55
2022/09/05 02:16:59;;;;;;;3.60;2.47;;;18.90;99.90;;;;;;7384508;19;20372;-55
2022/09/05 02:19:32;;;;;;;2.90;1.83;;;18.90;99.90;;;;;;7384070;19;20422;-55
2022/09/05 02:22:08;;;;;;;3.53;2.13;;;18.50;99.90;;;;;;7382466;19;20376;-47
2022/09/05 02:24:39;;;;;;;4.53;2.57;;;18.30;99.90;;;;;;7381954;19;20383;-47
2022/09/05 02:27:28;;;;;;;2.30;2.10;;;18.30;99.90;;;;;;7384180;19;20992;-47
2022/09/05 02:30:08;;;;;;;3.43;2.23;;;18.20;99.90;;;;;;7384158;19;20380;-48
2022/09/05 02:33:10;;;;;;;3.20;2.00;;;18.20;99.90;;;;;;7382663;19;20383;-48
2022/09/05 02:35:50;;;;;;;4.23;2.17;;;18.40;99.90;;;;;;7380207;19;20381;-48
2022/09/05 02:38:24;;;;;;;2.70;2.37;;;18.70;99.90;;;;;;7383846;19;20730;-48
2022/09/05 02:40:59;;;;;;;3.43;2.30;;;18.90;99.90;;;;;;7385239;19;20387;-48
2022/09/05 02:43:48;;;;;;;4.30;2.37;;;18.70;99.90;;;;;;7382752;19;20383;-47
2022/09/05 02:46:26;;;;;;;3.30;2.63;;;18.60;99.90;;;;;;7381181;19;20894;-48
2022/09/05 02:49:04;;;;;;;2.73;2.47;;;18.40;99.90;;;;;;7384862;19;20403;-47
2022/09/05 02:51:40;;;;;;;7.07;2.70;;;18.10;99.90;;;;;;7382946;19;20409;-55
2022/09/05 02:54:13;;;;;;;4.97;1.97;;;18.10;99.90;;;;;;7383742;19;20386;-55
2022/09/05 02:56:55;;;;;;;2.60;1.93;;;18.10;99.90;;;;;;7381338;19;20397;-55
2022/09/05 02:59:42;;;;;;;4.03;2.20;;;18.30;99.90;;;;;;7384200;19;20922;-55
2022/09/05 03:02:19;;;;;;;3.77;2.77;;;18.30;99.90;;;;;;7379424;19;20986;-55
2022/09/05 03:04:56;;;;;;;2.67;2.20;;;18.30;99.90;;;;;;7382484;19;20409;-57
2022/09/05 03:07:48;;;;;;;4.37;2.20;;;18.40;99.90;;;;;;7380662;19;20784;-55
2022/09/05 03:10:44;;;;;;;4.10;2.07;;;18.50;99.90;;;;;;7383224;19;20409;-55
2022/09/05 03:13:48;;;;;;;2.60;2.40;;;18.20;99.90;;;;;;7385611;19;20372;-55
2022/09/05 03:17:08;;;;;;;2.50;2.07;;;18.30;99.90;;;;;;7389227;19;20450;-55
2022/09/05 03:20:26;;;;;;;3.03;2.23;;;18.30;99.90;;;;;;7388592;19;20422;-48
2022/09/05 03:23:26;;;;;;;3.30;2.70;;;18.00;99.90;;;;;;7389914;19;20365;-47
2022/09/05 03:26:36;;;;;;;4.27;2.60;;;17.90;99.90;;;;;;7390273;19;20387;-48
2022/09/05 03:29:35;;;;;;;3.40;2.50;;;18.10;99.90;;;;;;7390924;19;20379;-47
2022/09/05 03:32:37;;;;;;;2.70;2.17;;;18.10;99.90;;;;;;7389302;19;20509;-48
2022/09/05 03:35:49;;;;;;;5.03;2.87;;;18.10;99.90;;;;;;7389702;19;20997;-48
2022/09/05 03:38:48;;;;;;;2.83;1.97;;;18.20;99.90;;;;;;7388207;19;20384;-48
2022/09/05 03:41:33;;;;;;;2.37;2.10;;;18.30;99.90;;;;;;7392041;19;20913;-48
2022/09/05 03:44:34;;;;;;;2.37;2.17;;;18.20;99.90;;;;;;7388446;19;20372;-47
2022/09/05 03:47:22;;;;;;;2.63;2.17;;;18.10;99.90;;;;;;7388797;19;20488;-48
2022/09/05 03:50:18;;;;;;;3.80;2.30;;;18.00;99.90;;;;;;7388110;19;20380;-48
2022/09/05 03:53:04;;;;;;;3.20;2.90;;;18.00;99.90;;;;;;7389213;19;20411;-48
2022/09/05 03:55:47;;;;;;;4.67;2.50;;;17.90;99.90;;;;;;7389808;19;20368;-47
2022/09/05 03:58:54;;;;;;;2.53;2.23;;;17.70;99.90;;;;;;7390046;19;20405;-47
2022/09/05 04:01:34;;;;;;;3.00;2.07;;;17.60;99.90;;;;;;7387094;19;20439;-55
2022/09/05 04:04:08;;;;;;;2.77;2.57;;;17.70;99.90;;;;;;7388907;19;20901;-55
2022/09/05 04:06:45;;;;;;;2.70;2.10;;;17.80;99.90;;;;;;7386327;19;20475;-55
2022/09/05 04:09:21;;;;;;;2.67;1.97;;;17.80;99.90;;;;;;7387070;19;20482;-56
2022/09/05 04:11:55;;;;;;;3.70;2.40;;;17.60;99.90;;;;;;7386883;19;20715;-55
2022/09/05 04:14:32;;;;;;;5.30;2.50;;;17.50;99.90;;;;;;7389369;19;20854;-55
2022/09/05 04:17:05;;;;;;;2.77;2.40;;;17.50;99.90;;;;;;7387656;19;20411;-56
2022/09/05 04:19:41;;;;;;;3.50;2.40;;;17.40;99.90;;;;;;7389747;19;20381;-55
2022/09/05 04:22:21;;;;;;;5.10;2.87;;;17.40;99.90;;;;;;7387135;19;20769;-55
2022/09/05 04:24:57;;;;;;;6.40;2.83;;;17.40;99.90;;;;;;7387613;19;20380;-55
2022/09/05 04:27:36;;;;;;;4.00;2.77;;;17.50;99.90;;;;;;7386646;19;20390;-55
2022/09/05 04:30:32;;;;;;;3.10;2.40;;;17.50;99.90;;;;;;7387880;19;20412;-56
2022/09/05 04:33:06;;;;;;;5.13;2.47;;;17.60;99.90;;;;;;7388730;19;20448;-55
2022/09/05 04:35:41;;;;;;;3.33;2.50;;;17.70;99.90;;;;;;7387778;19;20922;-56
2022/09/05 04:38:15;;;;;;;6.27;2.63;;;17.90;99.90;;;;;;7386396;19;20419;-55
2022/09/05 04:40:48;;;;;;;4.30;2.80;;;17.90;99.90;;;;;;7388427;19;20414;-55
2022/09/05 04:43:32;;;;;;;2.63;2.43;;;17.90;99.90;;;;;;7385731;19;21845;-55
2022/09/05 04:46:20;;;;;;;3.60;2.77;;;17.90;99.90;;;;;;7388552;19;20382;-55
2022/09/05 04:48:59;;;;;;;4.30;2.63;;;18.00;99.90;;;;;;7386502;19;20372;-56
2022/09/05 04:51:52;;;;;;;5.70;2.40;;;18.00;99.90;;;;;;7383440;19;20460;-55
2022/09/05 04:54:34;;;;;;;3.73;2.43;;;18.00;99.90;;;;;;7386346;19;20982;-55
2022/09/05 04:57:14;;;;;;;3.80;2.77;;;18.00;99.90;;;;;;7385878;19;20380;-55
2022/09/05 04:59:52;;;;;;;3.23;2.43;;;18.00;99.90;;;;;;7385045;19;20380;-47
2022/09/05 05:02:34;;;;;;;3.70;2.70;;;17.80;99.90;;;;;;7385026;19;21026;-48
2022/09/05 05:05:10;;;;;;;3.60;2.97;;;17.70;99.90;;;;;;7386927;19;20593;-49
2022/09/05 05:07:50;;;;;;;3.57;3.27;;;17.70;99.90;;;;;;7386543;19;20482;-48
2022/09/05 05:10:28;;;;;;;3.57;2.60;;;17.60;99.90;;;;;;7387595;19;20424;-48
2022/09/05 05:13:05;;;;;;;3.67;2.63;;;17.60;99.90;;;;;;7386209;19;20421;-48
2022/09/05 05:15:38;;;;;;;2.97;2.60;;;17.70;99.90;;;;;;7385114;19;20459;-48
2022/09/05 05:18:23;;;;;;;4.33;2.90;;;17.60;99.90;;;;;;7385446;19;20388;-48
2022/09/05 05:21:01;;;;;;;3.23;2.73;;;17.70;99.90;;;;;;7385049;19;20409;-48
2022/09/05 05:23:37;;;;;;;2.93;2.60;;;17.70;99.90;;;;;;7387640;19;20738;-48
2022/09/05 05:26:09;;;;;;;4.37;2.87;;;17.70;99.90;;;;;;7384900;19;20402;-48
2022/09/05 05:28:50;;;;;;;3.43;2.60;;;17.90;99.90;;;;;;7386447;19;20379;-48
2022/09/05 05:31:25;;;;;;;2.60;2.33;;;18.10;99.90;;;;;;7385753;19;20946;-56
2022/09/05 05:34:03;;;;;;;6.50;3.10;;;18.10;99.90;;;;;;7385316;19;21603;-56
2022/09/05 05:36:38;;;;;;;5.67;2.90;;;18.10;99.90;;;;;;7385005;19;20383;-57
2022/09/05 05:39:11;;;;;;;3.03;2.63;;;18.10;99.90;;;;;;7385603;19;20447;-56
2022/09/05 05:41:46;;;;;;;3.93;3.00;;;18.00;99.90;;;;;;7385775;19;20387;-56
2022/09/05 05:44:18;;;;;;;5.17;2.80;;;18.00;99.90;;;;;;7385889;19;20406;-56
2022/09/05 05:46:56;;;;;;;3.87;3.00;;;18.10;99.90;;;;;;7386018;19;20402;-57
2022/09/05 05:49:49;;;;;;;4.73;2.67;;;18.10;99.90;;;;;;7383709;19;20905;-56
2022/09/05 05:52:51;;;;;;;4.80;3.33;;;18.20;99.90;;;;;;7382738;19;20380;-56
2022/09/05 05:55:52;;;;;;;4.13;3.73;;;18.40;99.90;;;;;;7385810;19;20420;-56
2022/09/05 05:58:47;;;;;;;5.57;3.30;;;18.40;99.90;;;;;;7384625;19;20379;-56
2022/09/05 06:02:08;;;;;;;3.00;2.57;;;18.50;99.90;;;;;;7383949;19;20428;-56
2022/09/05 06:05:22;;;;;;;4.30;3.17;;;18.30;99.90;;;;;;7383260;19;20380;-56
2022/09/05 06:08:09;;;;;;;5.03;4.00;;;18.30;99.90;;;;;;7384262;19;20380;-56
2022/09/05 06:11:15;;;;;;;3.97;3.23;;;18.40;99.90;;;;;;7383532;19;20732;-56
2022/09/05 06:14:21;;;;;;;3.60;3.10;;;18.50;99.90;;;;;;7384935;19;20451;-56
2022/09/05 06:17:24;;;;;;;4.57;2.70;;;18.50;99.90;;;;;;7382869;19;20396;-56
2022/09/05 06:20:21;;;;;;;4.20;3.13;;;18.80;99.90;;;;;;7385423;19;20376;-56
2022/09/05 06:23:19;;;;;;;5.73;3.40;;;19.00;99.90;;;;;;7385415;19;20729;-56
2022/09/05 06:26:27;;;;;;;5.00;2.90;;;19.10;99.90;;;;;;7382194;19;20926;-56
2022/09/05 06:29:04;;;;;;;3.80;3.30;;;19.10;99.90;;;;;;7382491;19;20399;-56
2022/09/05 06:31:59;;;;;;;3.93;3.57;;;19.10;99.90;;;;;;7382584;19;20391;-56
2022/09/05 06:34:58;;;;;;;3.97;3.10;;;19.20;99.90;;;;;;7385340;19;20384;-56
2022/09/05 06:37:42;;;;;;;3.97;3.20;;;19.30;99.90;;;;;;7383908;19;20417;-57
2022/09/05 06:40:21;;;;;;;4.47;3.27;;;19.30;99.90;;;;;;7385417;19;20436;-56
2022/09/05 06:43:17;;;;;;;7.83;3.10;;;19.30;99.90;;;;;;7384022;19;20384;-55
2022/09/05 06:46:02;;;;;;;3.40;3.10;;;19.50;99.90;;;;;;7384257;19;20726;-57
2022/09/05 06:48:43;;;;;;;4.00;3.50;;;19.60;99.90;;;;;;7385639;19;20456;-57
2022/09/05 06:51:59;;;;;;;3.77;3.30;;;19.90;99.90;;;;;;7389153;19;20371;-57
2022/09/05 06:55:01;;;;;;;4.77;3.20;;;19.90;99.90;;;;;;7390401;19;20396;-57
2022/09/05 06:57:55;;;;;;;4.83;2.90;;;20.00;99.90;;;;;;7390477;19;20415;-57
2022/09/05 07:00:29;;;;;;;4.87;3.23;;;20.30;99.90;;;;;;7387599;19;20440;-55
2022/09/05 07:03:20;;;;;;;4.80;3.57;;;20.30;99.90;;;;;;7389877;19;20368;-55
2022/09/05 07:05:57;;;;;;;4.67;3.47;;;20.50;98.40;;;;;;7387622;19;20407;-55
2022/09/05 07:08:35;;;;;;;8.23;4.07;;;20.60;97.40;;;;;;7389544;19;20376;-56
2022/09/05 07:11:09;;;;;;;3.70;3.30;;;20.80;96.80;;;;;;7389109;19;21271;-47
2022/09/05 07:13:49;;;;;;;6.93;2.90;;;20.80;95.40;;;;;;7389429;19;20388;-47
2022/09/05 07:16:22;;;;;;;3.83;2.80;;;21.10;94.90;;;;;;7386664;19;20379;-47
2022/09/05 07:19:04;;;;;;;5.07;3.30;;;21.30;94.20;;;;;;7389525;19;20384;-47
2022/09/05 07:21:41;;;;;;;4.40;3.07;;;21.60;94.50;;;;;;7390840;19;20379;-47
2022/09/05 07:24:14;;;;;;;4.90;2.97;;;21.70;93.80;;;;;;7390271;19;20376;-48
2022/09/05 07:26:48;;;;;;;3.10;2.60;;;21.80;94.20;;;;;;7389654;19;20387;-48
2022/09/05 07:29:26;;;;;;;5.60;4.07;;;21.90;93.00;;;;;;7391197;19;20383;-48
2022/09/05 07:31:58;;;;;;;5.30;3.00;;;22.10;91.70;;;;;;7388883;19;20392;-49
2022/09/05 07:34:30;;;;;;;3.90;3.30;;;22.20;91.00;;;;;;7390024;19;20739;-49
2022/09/05 07:37:06;;;;;;;3.30;2.50;;;22.60;89.10;;;;;;7390791;19;20404;-49
2022/09/05 07:39:41;;;;;;;3.40;2.77;;;22.90;81.40;;;;;;7389655;19;20396;-48
2022/09/05 07:42:19;;;;;;;3.50;3.20;;;23.00;80.60;;;;;;7388002;19;20391;-48
2022/09/05 07:44:58;;;;;;;3.37;3.07;;;23.20;81.50;;;;;;7387366;19;20379;-49
2022/09/05 07:47:31;;;;;;;4.63;2.87;;;23.50;79.60;;;;;;7388274;19;20938;-48
2022/09/05 07:50:06;;;;;;;4.50;3.50;;;23.70;78.40;;;;;;7388136;19;20384;-48
2022/09/05 07:52:41;;;;;;;3.43;3.13;;;24.00;74.80;;;;;;7386256;19;20924;-49
2022/09/05 07:55:24;;;;;;;6.10;3.00;;;24.10;73.40;;;;;;7390968;19;20376;-49
2022/09/05 07:57:56;;;;;;;4.50;2.80;;;24.30;71.70;;;;;;7388936;19;20384;-49
2022/09/05 08:00:31;;;;;;;5.70;3.10;;;24.40;71.70;;;;;;7385999;19;20436;-49
2022/09/05 08:03:02;;;;;;;3.37;3.07;;;24.50;70.50;;;;;;7389860;19;20756;-48
2022/09/05 08:05:41;;;;;;;4.83;2.50;;;24.60;70.20;;;;;;7385929;19;20380;-49
2022/09/05 08:08:15;;;;;;;3.77;3.37;;;24.80;71.10;;;;;;7388473;19;20403;-49
2022/09/05 08:10:50;;;;;;;5.63;5.07;;;24.80;69.10;;;;;;7389305;19;20447;-48
2022/09/05 08:13:23;;;;;;;4.93;3.40;;;25.10;67.10;;;;;;7388500;19;20369;-48
2022/09/05 08:16:00;;;;;;;3.63;2.67;;;25.20;65.50;;;;;;7386941;19;20930;-48
2022/09/05 08:18:38;;;;;;;12.43;3.60;;;25.20;65.00;;;;;;7388292;19;20414;-48
2022/09/05 08:21:12;;;;;;;4.50;2.53;;;25.20;65.60;;;;;;7389377;19;20424;-49
2022/09/05 08:23:53;;;;;;;3.70;3.30;;;24.90;67.30;;;;;;7385686;19;20376;-48
2022/09/05 08:26:34;;;;;;;3.10;2.50;;;24.90;67.40;;;;;;7387790;19;20886;-48
2022/09/05 08:29:10;;;;;;;5.80;3.13;;;24.90;68.40;;;;;;7387110;19;20375;-48
2022/09/05 08:31:47;;;;;;;3.93;2.10;;;25.10;67.60;;;;;;7388062;19;20455;-48
2022/09/05 08:34:23;;;;;;;6.57;2.90;;;25.70;66.40;;;;;;7387023;19;20375;-48
2022/09/05 08:36:56;;;;;;;5.00;2.97;;;26.10;65.10;;;;;;7387275;19;20372;-48
2022/09/05 08:39:30;;;;;;;6.47;3.67;;;26.50;61.30;;;;;;7387547;19;20957;-48
2022/09/05 08:42:17;;;;;;;4.43;3.40;;;26.70;61.00;;;;;;7386281;19;21056;-48
2022/09/05 08:45:03;;;;;;;3.00;2.80;;;27.00;59.60;;;;;;7387238;19;20705;-48
2022/09/05 08:47:43;;;;;;;5.97;3.60;;;27.50;59.00;;;;;;7384556;19;20372;-48
2022/09/05 08:50:34;;;;;;;4.40;2.60;;;27.90;57.50;;;;;;7387127;19;20408;-57
2022/09/05 08:53:16;;;;;;;5.43;2.90;;;28.40;56.90;;;;;;7386242;19;21029;-57
2022/09/05 08:55:55;;;;;;;4.40;3.17;;;28.80;56.00;;;;;;7386621;19;20882;-57
2022/09/05 08:58:48;;;;;;;7.37;3.07;;;29.10;54.60;;;;;;7384755;19;20794;-57
2022/09/05 09:01:26;;;;;;;6.50;3.13;;;29.50;53.90;;;;;;7383909;19;20447;-57
2022/09/05 09:04:16;;;;;;;6.13;4.23;;;29.90;52.60;;;;;;7385365;19;20368;-57
2022/09/05 09:07:06;;;;;;;3.67;3.17;;;30.10;52.00;;;;;;7383785;19;20410;-58
2022/09/05 09:09:43;;;;;;;4.30;3.00;;;30.40;51.80;;;;;;7387106;19;20373;-57
2022/09/05 09:12:31;;;;;;;4.53;2.53;;;30.40;51.40;;;;;;7382288;19;20387;-57
2022/09/05 09:15:05;;;;;;;4.03;2.80;;;30.80;50.30;;;;;;7384495;19;20423;-56
2022/09/05 09:17:44;;;;;;;3.87;3.30;;;30.80;50.10;;;;;;7387794;19;20840;-57
2022/09/05 09:20:35;;;;;;;4.23;2.80;;;31.20;49.60;;;;;;7387099;19;21184;-57
2022/09/05 09:23:08;;;;;;;4.13;2.50;;;31.50;48.60;;;;;;7384726;19;20415;-56
2022/09/05 09:25:41;;;;;;;4.40;3.30;;;31.70;47.80;;;;;;7386488;19;20905;-57
2022/09/05 09:28:44;;;;;;;2.97;2.60;;;31.90;47.60;;;;;;7386549;19;20375;-57
2022/09/05 09:31:19;;;;;;;4.60;4.00;;;32.30;46.80;;;;;;7386133;19;20409;-56
2022/09/05 09:33:55;;;;;;;6.07;4.03;;;32.30;46.60;;;;;;7387421;19;20372;-56
2022/09/05 09:36:54;;;;;;;3.83;2.70;;;32.60;46.30;;;;;;7383477;19;20403;-56
2022/09/05 09:39:32;;;;;;;3.40;2.57;;;32.90;45.50;;;;;;7385854;19;20412;-56
2022/09/05 09:42:26;;;;;;;6.87;3.30;;;33.00;45.60;;;;;;7385241;19;20421;-57
2022/09/05 09:45:21;;;;;;;3.30;2.07;;;33.30;44.90;;;;;;7385894;19;20391;-57
2022/09/05 09:48:11;;;;;;;3.83;2.67;;;33.50;44.40;;;;;;7384480;19;20522;-57
2022/09/05 09:50:58;;;;;;;3.47;2.47;;;33.90;43.40;;;;;;7385179;19;20383;-56
2022/09/05 09:53:44;;;;;;;5.50;2.13;;;34.00;43.40;;;;;;7383817;19;20396;-56
2022/09/05 09:56:55;;;;;;;3.73;2.40;;;34.00;43.40;;;;;;7385847;19;20368;-56
2022/09/05 09:59:56;;;;;;;4.27;2.10;;;34.40;42.60;;;;;;7384194;19;20372;-58
2022/09/05 10:02:50;;;;;;;9.23;2.33;;;34.20;42.80;;;;;;7381976;19;20499;-58
2022/09/05 10:05:45;;;;;;;2.53;1.93;;;34.30;42.30;;;;;;7383519;19;20368;-56
2022/09/05 10:08:28;;;;;;;3.70;2.40;;;34.40;42.30;;;;;;7384825;19;20398;-56
2022/09/05 10:11:31;;;;;;;3.53;2.90;;;34.80;42.10;;;;;;7385716;19;20380;-57
2022/09/05 10:14:35;;;;;;;3.27;2.70;;;35.10;41.70;;;;;;7384707;19;20375;-57
2022/09/05 10:17:38;;;;;;;2.70;2.27;;;35.20;40.90;;;;;;7383791;19;20375;-57
2022/09/05 10:20:18;;;;;;;3.07;2.07;;;35.30;40.40;;;;;;7385653;19;20380;-56
2022/09/05 10:23:16;;;;;;;5.70;3.20;;;35.50;40.10;;;;;;7388638;19;20666;-56
2022/09/05 10:26:08;;;;;;;3.50;2.80;;;35.80;39.70;;;;;;7393261;19;20364;-58
2022/09/05 10:28:57;;;;;;;8.00;2.20;;;35.80;39.50;;;;;;7393525;19;20372;-56
2022/09/05 10:31:48;;;;;;;3.20;2.20;;;36.00;39.00;;;;;;7391380;19;21281;-57
2022/09/05 10:34:24;;;;;;;4.33;2.27;;;36.10;38.50;;;;;;7393344;19;20917;-57
2022/09/05 10:37:04;;;;;;;3.10;2.23;;;35.90;38.60;;;;;;7392788;19;20376;-56
2022/09/05 10:39:36;;;;;;;3.10;2.10;;;36.30;38.70;;;;;;7392343;19;20414;-57
2022/09/05 10:42:13;;;;;;;14.67;13.17;;;36.50;37.80;;;;;;7392414;19;20943;-57
2022/09/05 10:44:49;;;;;;;6.90;4.57;;;36.90;37.00;;;;;;7391959;19;20421;-56
2022/09/05 10:47:36;;;;;;;3.40;2.97;;;36.90;37.30;;;;;;7392583;19;20700;-57
2022/09/05 10:50:18;;;;;;;4.10;3.60;;;37.10;37.00;;;;;;7391356;19;20452;-57
2022/09/05 10:53:03;;;;;;;3.70;3.07;;;37.30;36.70;;;;;;7389201;19;20376;-57
2022/09/05 10:55:48;;;;;;;4.50;4.10;;;37.60;35.70;;;;;;7391907;19;20380;-57
2022/09/05 10:58:25;;;;;;;2.67;2.47;;;37.60;35.70;;;;;;7390494;19;20384;-56
2022/09/05 11:01:08;;;;;;;3.37;2.43;;;37.20;35.30;;;;;;7386913;19;20443;-57
2022/09/05 11:03:48;;;;;;;2.93;2.50;;;37.00;36.10;;;;;;7391813;19;20380;-57
2022/09/05 11:06:24;;;;;;;3.63;1.93;;;36.90;35.70;;;;;;7389473;19;20465;-56
2022/09/05 11:09:03;;;;;;;2.43;1.63;;;36.10;35.90;;;;;;7389785;19;20410;-56
2022/09/05 11:11:44;;;;;;;2.20;2.00;;;36.10;36.40;;;;;;7391634;19;20511;-56
2022/09/05 11:14:37;;;;;;;5.20;1.90;;;35.80;36.70;;;;;;7385783;19;20427;-56
2022/09/05 11:17:16;;;;;;;2.50;2.00;;;35.60;36.40;;;;;;7388713;19;20378;-58
2022/09/05 11:19:57;;;;;;;4.13;2.83;;;36.20;35.20;;;;;;7390167;19;20372;-58
2022/09/05 11:22:36;;;;;;;1.60;1.50;;;36.60;35.10;;;;;;7390439;19;20753;-57
2022/09/05 11:25:17;;;;;;;2.40;1.73;;;36.90;34.10;;;;;;7389224;19;20380;-56
2022/09/05 11:27:51;;;;;;;2.67;1.90;;;37.00;34.20;;;;;;7388913;19;20384;-57
2022/09/05 11:30:26;;;;;;;2.00;1.90;;;37.30;33.70;;;;;;7388214;19;20380;-49
2022/09/05 11:33:33;;;;;;;2.27;1.53;;;37.50;33.50;;;;;;7387878;19;21043;-48
2022/09/05 11:36:06;;;;;;;1.80;1.70;;;37.00;33.10;;;;;;7387562;19;20409;-49
2022/09/05 11:39:00;;;;;;;2.10;2.00;;;36.30;34.20;;;;;;7391174;19;20905;-48
2022/09/05 11:42:13;;;;;;;2.20;2.00;;;35.60;35.80;;;;;;7390637;19;20755;-48
2022/09/05 11:44:58;;;;;;;3.17;1.80;;;35.80;34.90;;;;;;7388526;19;20459;-48
2022/09/05 11:48:06;;;;;;;1.87;1.50;;;36.30;34.00;;;;;;7388306;19;20392;-49
2022/09/05 11:51:00;;;;;;;1.87;1.60;;;36.70;33.50;;;;;;7388616;19;20416;-49
2022/09/05 11:53:54;;;;;;;1.87;1.70;;;37.10;33.00;;;;;;7387378;19;20436;-49
2022/09/05 11:57:00;;;;;;;3.97;2.00;;;37.00;32.90;;;;;;7386494;19;21135;-49
2022/09/05 11:59:58;;;;;;;3.77;1.63;;;37.00;32.60;;;;;;7387524;19;20431;-48
2022/09/05 12:02:48;;;;;;;2.20;1.80;;;36.40;33.70;;;;;;7389531;19;20372;-56
2022/09/05 12:05:41;;;;;;;2.43;1.90;;;36.00;34.00;;;;;;7387666;19;20533;-56
2022/09/05 12:08:22;;;;;;;1.90;1.67;;;36.20;34.10;;;;;;7388032;19;20391;-56
2022/09/05 12:11:04;;;;;;;3.47;2.50;;;36.30;33.60;;;;;;7388671;19;20380;-56
2022/09/05 12:13:48;;;;;;;2.07;1.87;;;36.70;33.50;;;;;;7386167;19;20416;-55
2022/09/05 12:16:27;;;;;;;2.80;1.60;;;37.10;32.90;;;;;;7387186;19;20402;-56
2022/09/05 12:19:13;;;;;;;2.80;1.87;;;37.70;32.30;;;;;;7387672;19;20857;-56
2022/09/05 12:22:10;;;;;;;2.47;2.00;;;37.40;31.70;;;;;;7389361;19;21059;-56
2022/09/05 12:24:56;;;;;;;2.20;1.83;;;36.90;32.60;;;;;;7387376;19;20368;-56
2022/09/05 12:27:30;;;;;;;2.00;1.67;;;37.20;32.70;;;;;;7386844;19;20384;-56
2022/09/05 12:30:05;;;;;;;2.77;1.77;;;37.50;32.70;;;;;;7388910;19;20990;-49
2022/09/05 12:32:35;;;;;;;3.10;2.00;;;37.70;32.00;;;;;;7387034;19;20371;-49
2022/09/05 12:35:05;;;;;;;1.97;1.77;;;37.20;32.50;;;;;;7386895;19;20443;-48
2022/09/05 12:37:41;;;;;;;1.90;1.80;;;37.00;33.10;;;;;;7387975;19;20393;-48
2022/09/05 12:40:23;;;;;;;2.17;1.90;;;37.10;32.80;;;;;;7386640;19;20364;-48
2022/09/05 12:42:56;;;;;;;1.97;1.77;;;37.10;32.30;;;;;;7388224;19;20726;-49
2022/09/05 12:45:33;;;;;;;2.50;1.57;;;37.10;32.40;;;;;;7386308;19;20789;-48
2022/09/05 12:48:11;;;;;;;1.70;1.60;;;37.10;32.90;;;;;;7387173;19;20387;-48
2022/09/05 12:50:49;;;;;;;2.27;1.97;;;36.60;32.90;;;;;;7386129;19;20415;-49
2022/09/05 12:53:20;;;;;;;1.70;1.60;;;36.60;33.00;;;;;;7387690;19;20384;-50
2022/09/05 12:55:58;;;;;;;2.40;1.70;;;36.50;33.90;;;;;;7387533;19;20981;-49
2022/09/05 12:58:30;;;;;;;1.90;1.70;;;36.90;32.90;;;;;;7387504;19;21058;-49
2022/09/05 13:01:21;;;;;;;3.33;1.67;;;37.00;32.60;;;;;;7384928;19;20443;-49
2022/09/05 13:03:57;;;;;;;2.03;1.67;;;37.50;32.30;;;;;;7385560;19;20380;-49
2022/09/05 13:06:33;;;;;;;4.93;1.80;;;37.20;32.10;;;;;;7385442;19;20383;-49
2022/09/05 13:09:09;;;;;;;1.93;1.70;;;37.20;32.10;;;;;;7385865;19;20380;-49
2022/09/05 13:11:49;;;;;;;1.90;1.80;;;36.40;31.90;;;;;;7386822;19;20409;-49
2022/09/05 13:14:30;;;;;;;2.37;1.80;;;36.40;32.80;;;;;;7384712;19;20397;-49
2022/09/05 13:17:04;;;;;;;3.07;1.80;;;36.70;32.60;;;;;;7361950;19;20415;-49
2022/09/05 13:19:42;;;;;;;3.10;1.60;;;36.90;32.00;;;;;;7385054;19;20404;-49
2022/09/05 13:22:15;;;;;;;3.03;1.77;;;36.90;31.80;;;;;;7387206;19;20474;-49
2022/09/05 13:24:51;;;;;;;2.77;1.87;;;36.50;31.60;;;;;;7385063;19;20368;-48
2022/09/05 13:27:26;;;;;;;2.50;2.07;;;36.40;32.50;;;;;;7385317;19;20375;-49
2022/09/05 13:30:07;;;;;;;2.90;1.60;;;36.50;32.90;;;;;;7384157;19;20379;-49
2022/09/05 13:32:39;;;;;;;1.80;1.70;;;36.60;32.70;;;;;;7386422;19;20368;-49
2022/09/05 13:35:14;;;;;;;2.10;1.93;;;36.70;32.50;;;;;;7386931;19;20434;-49
2022/09/05 13:37:46;;;;;;;2.70;1.60;;;36.60;32.50;;;;;;7384760;19;20383;-49
2022/09/05 13:40:21;;;;;;;2.50;1.77;;;36.70;32.50;;;;;;7386284;19;20376;-58
2022/09/05 13:43:07;;;;;;;2.63;1.90;;;36.50;32.70;;;;;;7387120;19;20387;-56
2022/09/05 13:45:55;;;;;;;2.40;1.87;;;36.30;32.50;;;;;;7385548;19;20376;-57
2022/09/05 13:48:39;;;;;;;1.70;1.60;;;35.90;33.00;;;;;;7387079;19;20803;-56
2022/09/05 13:51:27;;;;;;;3.57;1.77;;;35.40;33.50;;;;;;7387379;19;20738;-56
2022/09/05 13:54:13;;;;;;;2.00;1.80;;;35.10;34.20;;;;;;7383175;19;20388;-56
2022/09/05 13:56:49;;;;;;;2.00;1.70;;;34.60;34.60;;;;;;7383757;19;20918;-56
2022/09/05 13:59:24;;;;;;;3.37;2.30;;;34.00;36.30;;;;;;7386723;19;20376;-56
2022/09/05 14:02:26;;;;;;;2.30;2.10;;;33.60;35.50;;;;;;7384337;19;20443;-56
2022/09/05 14:05:12;;;;;;;2.27;1.73;;;33.40;35.50;;;;;;7384323;19;20376;-56
2022/09/05 14:08:22;;;;;;;2.17;1.97;;;33.10;34.70;;;;;;7385012;19;20364;-56
2022/09/05 14:11:16;;;;;;;2.47;2.00;;;33.00;35.30;;;;;;7384363;19;20413;-48